sensor_id;sensor_type;location;lat;lon;timestamp;temperature;humidity
35363;DHT22;21463;47.480;8.214;2023-08-17T00:00:18;21.70;71.60
35363;DHT22;21463;47.480;8.214;2023-08-17T00:01:21;21.80;71.50
35363;DHT22;21463;47.480;8.214;2023-08-17T00:02:23;21.60;71.40
35363;DHT22;21463;47.480;8.214;2023-08-17T00:03:26;21.60;71.50
35363;DHT22;21463;47.480;8.214;2023-08-17T00:04:28;20.50;70.90
35363;DHT22;21463;47.480;8.214;2023-08-17T00:05:31;20.70;70.90
35363;DHT22;21463;47.480;8.214;2023-08-17T00:06:35;21.70;71.60
35363;DHT22;21463;47.480;8.214;2023-08-17T00:07:37;21.70;71.50
35363;DHT22;21463;47.480;8.214;2023-08-17T00:08:39;21.60;71.50
35363;DHT22;21463;47.480;8.214;2023-08-17T00:09:42;21.60;71.60
35363;DHT22;21463;47.480;8.214;2023-08-17T00:10:45;21.60;71.50
35363;DHT22;21463;47.480;8.214;2023-08-17T00:11:47;21.70;71.50
35363;DHT22;21463;47.480;8.214;2023-08-17T00:12:50;21.70;71.60
35363;DHT22;21463;47.480;8.214;2023-08-17T00:13:53;21.60;71.50
35363;DHT22;21463;47.480;8.214;2023-08-17T00:14:56;21.70;71.50
35363;DHT22;21463;47.480;8.214;2023-08-17T00:15:58;21.70;71.60
35363;DHT22;21463;47.480;8.214;2023-08-17T00:17:01;21.70;71.50
35363;DHT22;21463;47.480;8.214;2023-08-17T00:18:05;21.60;71.50
35363;DHT22;21463;47.480;8.214;2023-08-17T00:19:07;21.70;71.50
35363;DHT22;21463;47.480;8.214;2023-08-17T00:20:10;21.60;71.40
35363;DHT22;21463;47.480;8.214;2023-08-17T00:21:13;21.70;71.50
35363;DHT22;21463;47.480;8.214;2023-08-17T00:22:15;21.60;71.30
35363;DHT22;21463;47.480;8.214;2023-08-17T00:23:18;21.70;71.40
35363;DHT22;21463;47.480;8.214;2023-08-17T00:24:22;21.60;71.50
35363;DHT22;21463;47.480;8.214;2023-08-17T00:25:25;21.60;71.60
35363;DHT22;21463;47.480;8.214;2023-08-17T00:26:27;21.60;71.40
35363;DHT22;21463;47.480;8.214;2023-08-17T00:27:33;21.70;71.50
35363;DHT22;21463;47.480;8.214;2023-08-17T00:28:35;21.60;71.30
35363;DHT22;21463;47.480;8.214;2023-08-17T00:29:38;21.60;71.40
35363;DHT22;21463;47.480;8.214;2023-08-17T00:30:41;21.70;71.30
35363;DHT22;21463;47.480;8.214;2023-08-17T00:31:43;21.60;71.30
35363;DHT22;21463;47.480;8.214;2023-08-17T00:32:47;21.60;71.40
35363;DHT22;21463;47.480;8.214;2023-08-17T00:33:50;21.60;71.30
35363;DHT22;21463;47.480;8.214;2023-08-17T00:34:52;21.60;71.50
35363;DHT22;21463;47.480;8.214;2023-08-17T00:35:55;21.60;71.30
35363;DHT22;21463;47.480;8.214;2023-08-17T00:36:59;21.60;71.30
35363;DHT22;21463;47.480;8.214;2023-08-17T00:38:02;21.60;71.30
35363;DHT22;21463;47.480;8.214;2023-08-17T00:39:04;21.60;71.40
35363;DHT22;21463;47.480;8.214;2023-08-17T00:40:07;21.60;71.40
35363;DHT22;21463;47.480;8.214;2023-08-17T00:41:09;21.60;71.50
35363;DHT22;21463;47.480;8.214;2023-08-17T00:42:12;23.20;72.20
35363;DHT22;21463;47.480;8.214;2023-08-17T00:43:16;21.60;71.40
35363;DHT22;21463;47.480;8.214;2023-08-17T00:44:19;20.50;70.80
35363;DHT22;21463;47.480;8.214;2023-08-17T00:45:23;21.60;71.30
35363;DHT22;21463;47.480;8.214;2023-08-17T00:46:26;21.60;71.30
35363;DHT22;21463;47.480;8.214;2023-08-17T00:47:31;21.60;71.30
35363;DHT22;21463;47.480;8.214;2023-08-17T00:48:33;21.70;71.50
35363;DHT22;21463;47.480;8.214;2023-08-17T00:49:36;21.60;71.50
35363;DHT22;21463;47.480;8.214;2023-08-17T00:50:39;21.60;71.40
35363;DHT22;21463;47.480;8.214;2023-08-17T00:51:42;21.60;71.20
35363;DHT22;21463;47.480;8.214;2023-08-17T00:52:45;21.60;71.50
35363;DHT22;21463;47.480;8.214;2023-08-17T00:53:47;21.60;71.40
35363;DHT22;21463;47.480;8.214;2023-08-17T00:54:50;21.60;71.40
35363;DHT22;21463;47.480;8.214;2023-08-17T00:55:52;21.60;71.30
35363;DHT22;21463;47.480;8.214;2023-08-17T00:56:56;21.60;71.30
35363;DHT22;21463;47.480;8.214;2023-08-17T00:57:59;21.60;71.30
35363;DHT22;21463;47.480;8.214;2023-08-17T00:59:03;21.60;71.30
35363;DHT22;21463;47.480;8.214;2023-08-17T01:00:06;21.60;71.40
35363;DHT22;21463;47.480;8.214;2023-08-17T01:01:09;21.60;71.30
35363;DHT22;21463;47.480;8.214;2023-08-17T01:02:12;21.60;71.50
35363;DHT22;21463;47.480;8.214;2023-08-17T01:03:15;23.90;72.50
35363;DHT22;21463;47.480;8.214;2023-08-17T01:04:18;21.60;71.20
35363;DHT22;21463;47.480;8.214;2023-08-17T01:05:21;21.60;71.30
35363;DHT22;21463;47.480;8.214;2023-08-17T01:06:23;21.60;71.30
35363;DHT22;21463;47.480;8.214;2023-08-17T01:07:26;21.60;71.30
35363;DHT22;21463;47.480;8.214;2023-08-17T01:08:29;21.60;71.40
35363;DHT22;21463;47.480;8.214;2023-08-17T01:09:31;20.70;70.90
35363;DHT22;21463;47.480;8.214;2023-08-17T01:10:37;21.60;71.40
35363;DHT22;21463;47.480;8.214;2023-08-17T01:11:46;22.50;71.80
35363;DHT22;21463;47.480;8.214;2023-08-17T01:12:56;21.60;71.20
35363;DHT22;21463;47.480;8.214;2023-08-17T01:16:06;21.60;71.30
35363;DHT22;21463;47.480;8.214;2023-08-17T01:17:19;21.60;71.20
35363;DHT22;21463;47.480;8.214;2023-08-17T01:18:29;21.60;71.30
35363;DHT22;21463;47.480;8.214;2023-08-17T01:19:33;21.60;71.20
35363;DHT22;21463;47.480;8.214;2023-08-17T01:20:36;21.60;71.40
35363;DHT22;21463;47.480;8.214;2023-08-17T01:21:41;21.60;71.30
35363;DHT22;21463;47.480;8.214;2023-08-17T01:22:48;21.60;71.20
35363;DHT22;21463;47.480;8.214;2023-08-17T01:23:52;21.70;71.40
35363;DHT22;21463;47.480;8.214;2023-08-17T01:24:59;21.60;71.20
35363;DHT22;21463;47.480;8.214;2023-08-17T01:26:01;21.60;71.40
35363;DHT22;21463;47.480;8.214;2023-08-17T01:27:04;21.60;71.40
35363;DHT22;21463;47.480;8.214;2023-08-17T01:28:06;21.60;71.50
35363;DHT22;21463;47.480;8.214;2023-08-17T01:29:09;19.90;70.50
35363;DHT22;21463;47.480;8.214;2023-08-17T01:30:12;21.60;71.30
35363;DHT22;21463;47.480;8.214;2023-08-17T01:31:24;21.60;71.20
35363;DHT22;21463;47.480;8.214;2023-08-17T01:32:30;21.60;71.20
35363;DHT22;21463;47.480;8.214;2023-08-17T01:33:47;21.60;71.30
35363;DHT22;21463;47.480;8.214;2023-08-17T01:34:53;21.60;71.30
35363;DHT22;21463;47.480;8.214;2023-08-17T01:37:20;21.60;71.20
35363;DHT22;21463;47.480;8.214;2023-08-17T01:38:24;21.50;71.20
35363;DHT22;21463;47.480;8.214;2023-08-17T01:39:31;21.60;71.20
35363;DHT22;21463;47.480;8.214;2023-08-17T01:40:34;21.60;71.20
35363;DHT22;21463;47.480;8.214;2023-08-17T01:41:37;21.50;71.30
35363;DHT22;21463;47.480;8.214;2023-08-17T01:42:41;21.60;71.20
35363;DHT22;21463;47.480;8.214;2023-08-17T01:43:44;21.60;71.20
35363;DHT22;21463;47.480;8.214;2023-08-17T01:44:49;21.60;71.30
35363;DHT22;21463;47.480;8.214;2023-08-17T01:45:53;21.60;71.30
35363;DHT22;21463;47.480;8.214;2023-08-17T01:46:56;21.60;71.40
35363;DHT22;21463;47.480;8.214;2023-08-17T01:47:59;21.60;71.40
35363;DHT22;21463;47.480;8.214;2023-08-17T01:49:01;21.60;71.30
35363;DHT22;21463;47.480;8.214;2023-08-17T01:50:05;21.60;71.30
35363;DHT22;21463;47.480;8.214;2023-08-17T01:51:10;21.60;71.40
35363;DHT22;21463;47.480;8.214;2023-08-17T01:52:13;21.60;71.40
35363;DHT22;21463;47.480;8.214;2023-08-17T01:53:16;21.60;72.00
35363;DHT22;21463;47.480;8.214;2023-08-17T01:54:19;21.60;71.40
35363;DHT22;21463;47.480;8.214;2023-08-17T01:55:21;21.60;71.30
35363;DHT22;21463;47.480;8.214;2023-08-17T01:56:27;21.50;71.20
35363;DHT22;21463;47.480;8.214;2023-08-17T01:57:29;21.60;71.30
35363;DHT22;21463;47.480;8.214;2023-08-17T01:58:31;21.60;71.40
35363;DHT22;21463;47.480;8.214;2023-08-17T01:59:34;21.40;71.20
35363;DHT22;21463;47.480;8.214;2023-08-17T02:00:36;21.60;71.40
35363;DHT22;21463;47.480;8.214;2023-08-17T02:01:39;21.60;71.30
35363;DHT22;21463;47.480;8.214;2023-08-17T02:02:43;21.60;71.40
35363;DHT22;21463;47.480;8.214;2023-08-17T02:03:46;21.60;71.30
35363;DHT22;21463;47.480;8.214;2023-08-17T02:04:48;21.60;71.40
35363;DHT22;21463;47.480;8.214;2023-08-17T02:05:51;21.60;71.60
35363;DHT22;21463;47.480;8.214;2023-08-17T02:06:53;21.60;71.60
35363;DHT22;21463;47.480;8.214;2023-08-17T02:07:56;21.60;71.40
35363;DHT22;21463;47.480;8.214;2023-08-17T02:08:59;21.50;71.30
35363;DHT22;21463;47.480;8.214;2023-08-17T02:10:01;21.60;71.40
35363;DHT22;21463;47.480;8.214;2023-08-17T02:11:04;21.50;71.40
35363;DHT22;21463;47.480;8.214;2023-08-17T02:12:06;21.60;71.50
35363;DHT22;21463;47.480;8.214;2023-08-17T02:13:10;21.60;71.40
35363;DHT22;21463;47.480;8.214;2023-08-17T02:14:19;21.50;71.40
35363;DHT22;21463;47.480;8.214;2023-08-17T02:15:21;21.60;71.60
35363;DHT22;21463;47.480;8.214;2023-08-17T02:16:24;21.60;71.60
35363;DHT22;21463;47.480;8.214;2023-08-17T02:17:26;21.60;71.50
35363;DHT22;21463;47.480;8.214;2023-08-17T02:18:29;21.50;71.60
35363;DHT22;21463;47.480;8.214;2023-08-17T02:19:34;21.00;71.10
35363;DHT22;21463;47.480;8.214;2023-08-17T02:20:36;21.50;71.50
35363;DHT22;21463;47.480;8.214;2023-08-17T02:21:38;21.60;71.40
35363;DHT22;21463;47.480;8.214;2023-08-17T02:22:43;21.60;71.60
35363;DHT22;21463;47.480;8.214;2023-08-17T02:23:45;19.70;70.40
35363;DHT22;21463;47.480;8.214;2023-08-17T02:24:51;21.60;71.50
35363;DHT22;21463;47.480;8.214;2023-08-17T02:25:53;21.60;71.40
35363;DHT22;21463;47.480;8.214;2023-08-17T02:26:56;20.30;70.90
35363;DHT22;21463;47.480;8.214;2023-08-17T02:27:58;21.60;71.60
35363;DHT22;21463;47.480;8.214;2023-08-17T02:29:02;21.50;71.70
35363;DHT22;21463;47.480;8.214;2023-08-17T02:30:04;21.50;71.60
35363;DHT22;21463;47.480;8.214;2023-08-17T02:31:07;19.80;70.60
35363;DHT22;21463;47.480;8.214;2023-08-17T02:32:09;21.60;71.60
35363;DHT22;21463;47.480;8.214;2023-08-17T02:33:12;21.60;71.80
35363;DHT22;21463;47.480;8.214;2023-08-17T02:34:16;21.50;71.70
35363;DHT22;21463;47.480;8.214;2023-08-17T02:35:18;21.50;71.50
35363;DHT22;21463;47.480;8.214;2023-08-17T02:36:20;21.50;71.60
35363;DHT22;21463;47.480;8.214;2023-08-17T02:37:23;21.60;71.60
35363;DHT22;21463;47.480;8.214;2023-08-17T02:38:28;21.60;71.80
35363;DHT22;21463;47.480;8.214;2023-08-17T02:39:31;21.60;71.60
35363;DHT22;21463;47.480;8.214;2023-08-17T02:40:33;21.60;71.70
35363;DHT22;21463;47.480;8.214;2023-08-17T02:41:35;21.50;71.60
35363;DHT22;21463;47.480;8.214;2023-08-17T02:42:41;21.50;71.70
35363;DHT22;21463;47.480;8.214;2023-08-17T02:43:43;21.60;71.80
35363;DHT22;21463;47.480;8.214;2023-08-17T02:44:47;21.60;71.80
35363;DHT22;21463;47.480;8.214;2023-08-17T02:45:50;21.50;71.60
35363;DHT22;21463;47.480;8.214;2023-08-17T02:46:52;21.60;71.80
35363;DHT22;21463;47.480;8.214;2023-08-17T02:47:55;21.60;71.90
35363;DHT22;21463;47.480;8.214;2023-08-17T02:48:58;21.60;71.80
35363;DHT22;21463;47.480;8.214;2023-08-17T02:50:03;21.60;71.70
35363;DHT22;21463;47.480;8.214;2023-08-17T02:51:06;21.60;71.70
35363;DHT22;21463;47.480;8.214;2023-08-17T02:52:08;21.50;71.80
35363;DHT22;21463;47.480;8.214;2023-08-17T02:53:11;21.60;71.80
35363;DHT22;21463;47.480;8.214;2023-08-17T02:54:13;21.50;71.80
35363;DHT22;21463;47.480;8.214;2023-08-17T02:55:18;21.50;71.80
35363;DHT22;21463;47.480;8.214;2023-08-17T02:56:21;21.60;71.80
35363;DHT22;21463;47.480;8.214;2023-08-17T02:57:23;21.50;71.80
35363;DHT22;21463;47.480;8.214;2023-08-17T02:58:29;21.60;71.80
35363;DHT22;21463;47.480;8.214;2023-08-17T02:59:31;21.50;71.70
35363;DHT22;21463;47.480;8.214;2023-08-17T03:00:34;21.60;71.80
35363;DHT22;21463;47.480;8.214;2023-08-17T03:01:38;21.50;71.90
35363;DHT22;21463;47.480;8.214;2023-08-17T03:02:41;21.50;71.80
35363;DHT22;21463;47.480;8.214;2023-08-17T03:03:43;19.70;70.80
35363;DHT22;21463;47.480;8.214;2023-08-17T03:04:46;20.30;71.20
35363;DHT22;21463;47.480;8.214;2023-08-17T03:05:48;21.60;71.80
35363;DHT22;21463;47.480;8.214;2023-08-17T03:06:51;21.50;71.90
35363;DHT22;21463;47.480;8.214;2023-08-17T03:07:54;21.50;71.90
35363;DHT22;21463;47.480;8.214;2023-08-17T03:08:56;21.60;72.00
35363;DHT22;21463;47.480;8.214;2023-08-17T03:09:59;21.50;71.70
35363;DHT22;21463;47.480;8.214;2023-08-17T03:11:05;21.50;72.00
35363;DHT22;21463;47.480;8.214;2023-08-17T03:12:09;21.50;72.00
35363;DHT22;21463;47.480;8.214;2023-08-17T03:13:14;21.60;72.00
35363;DHT22;21463;47.480;8.214;2023-08-17T03:14:19;21.50;71.90
35363;DHT22;21463;47.480;8.214;2023-08-17T03:15:22;21.50;71.90
35363;DHT22;21463;47.480;8.214;2023-08-17T03:16:25;21.50;71.90
35363;DHT22;21463;47.480;8.214;2023-08-17T03:17:27;21.60;72.00
35363;DHT22;21463;47.480;8.214;2023-08-17T03:18:30;21.50;71.90
35363;DHT22;21463;47.480;8.214;2023-08-17T03:19:33;21.50;72.00
35363;DHT22;21463;47.480;8.214;2023-08-17T03:20:36;21.50;71.90
35363;DHT22;21463;47.480;8.214;2023-08-17T03:21:38;21.50;71.90
35363;DHT22;21463;47.480;8.214;2023-08-17T03:22:41;21.60;72.00
35363;DHT22;21463;47.480;8.214;2023-08-17T03:23:49;21.60;72.00
35363;DHT22;21463;47.480;8.214;2023-08-17T03:24:51;21.60;71.90
35363;DHT22;21463;47.480;8.214;2023-08-17T03:25:59;21.40;71.80
35363;DHT22;21463;47.480;8.214;2023-08-17T03:27:02;21.50;71.90
35363;DHT22;21463;47.480;8.214;2023-08-17T03:28:04;21.50;71.90
35363;DHT22;21463;47.480;8.214;2023-08-17T03:29:07;21.60;72.00
35363;DHT22;21463;47.480;8.214;2023-08-17T03:30:11;21.50;72.10
35363;DHT22;21463;47.480;8.214;2023-08-17T03:31:13;21.50;72.10
35363;DHT22;21463;47.480;8.214;2023-08-17T03:32:16;21.50;72.00
35363;DHT22;21463;47.480;8.214;2023-08-17T03:33:19;21.50;72.00
35363;DHT22;21463;47.480;8.214;2023-08-17T03:34:21;21.60;72.00
35363;DHT22;21463;47.480;8.214;2023-08-17T03:35:23;21.50;72.10
35363;DHT22;21463;47.480;8.214;2023-08-17T03:36:27;21.50;72.00
35363;DHT22;21463;47.480;8.214;2023-08-17T03:37:29;21.50;72.20
35363;DHT22;21463;47.480;8.214;2023-08-17T03:38:32;21.50;72.00
35363;DHT22;21463;47.480;8.214;2023-08-17T03:39:35;21.00;71.80
35363;DHT22;21463;47.480;8.214;2023-08-17T03:40:37;21.50;72.00
35363;DHT22;21463;47.480;8.214;2023-08-17T03:41:41;21.50;72.20
35363;DHT22;21463;47.480;8.214;2023-08-17T03:42:44;21.50;72.00
35363;DHT22;21463;47.480;8.214;2023-08-17T03:43:47;22.90;72.80
35363;DHT22;21463;47.480;8.214;2023-08-17T03:44:50;21.50;72.20
35363;DHT22;21463;47.480;8.214;2023-08-17T03:45:55;21.50;72.10
35363;DHT22;21463;47.480;8.214;2023-08-17T03:46:58;21.50;72.20
35363;DHT22;21463;47.480;8.214;2023-08-17T03:48:13;21.50;72.10
35363;DHT22;21463;47.480;8.214;2023-08-17T03:49:15;21.50;72.20
35363;DHT22;21463;47.480;8.214;2023-08-17T03:50:19;21.50;72.20
35363;DHT22;21463;47.480;8.214;2023-08-17T03:51:25;21.60;72.20
35363;DHT22;21463;47.480;8.214;2023-08-17T03:52:27;21.50;72.20
35363;DHT22;21463;47.480;8.214;2023-08-17T03:53:29;21.50;72.20
35363;DHT22;21463;47.480;8.214;2023-08-17T03:54:33;21.50;72.10
35363;DHT22;21463;47.480;8.214;2023-08-17T03:55:36;21.50;72.20
35363;DHT22;21463;47.480;8.214;2023-08-17T03:56:38;21.50;72.20
35363;DHT22;21463;47.480;8.214;2023-08-17T03:57:40;21.50;72.20
35363;DHT22;21463;47.480;8.214;2023-08-17T03:58:43;21.50;72.20
35363;DHT22;21463;47.480;8.214;2023-08-17T03:59:46;21.50;72.20
35363;DHT22;21463;47.480;8.214;2023-08-17T04:00:49;21.50;72.20
35363;DHT22;21463;47.480;8.214;2023-08-17T04:01:51;21.50;72.10
35363;DHT22;21463;47.480;8.214;2023-08-17T04:02:54;21.50;72.20
35363;DHT22;21463;47.480;8.214;2023-08-17T04:04:00;21.50;72.20
35363;DHT22;21463;47.480;8.214;2023-08-17T04:05:02;21.50;72.10
35363;DHT22;21463;47.480;8.214;2023-08-17T04:06:07;21.50;72.80
35363;DHT22;21463;47.480;8.214;2023-08-17T04:07:20;21.50;72.20
35363;DHT22;21463;47.480;8.214;2023-08-17T04:08:22;21.50;72.10
35363;DHT22;21463;47.480;8.214;2023-08-17T04:09:24;21.50;72.20
35363;DHT22;21463;47.480;8.214;2023-08-17T04:10:30;21.50;72.30
35363;DHT22;21463;47.480;8.214;2023-08-17T04:11:34;21.50;72.20
35363;DHT22;21463;47.480;8.214;2023-08-17T04:12:37;21.50;72.10
35363;DHT22;21463;47.480;8.214;2023-08-17T04:13:39;21.50;72.20
35363;DHT22;21463;47.480;8.214;2023-08-17T04:14:41;21.50;72.40
35363;DHT22;21463;47.480;8.214;2023-08-17T04:15:44;21.50;72.20
35363;DHT22;21463;47.480;8.214;2023-08-17T04:16:46;21.50;72.10
35363;DHT22;21463;47.480;8.214;2023-08-17T04:17:49;21.50;72.20
35363;DHT22;21463;47.480;8.214;2023-08-17T04:18:51;21.50;72.30
35363;DHT22;21463;47.480;8.214;2023-08-17T04:19:56;21.50;72.30
35363;DHT22;21463;47.480;8.214;2023-08-17T04:21:03;21.50;72.20
35363;DHT22;21463;47.480;8.214;2023-08-17T04:22:06;21.50;72.20
35363;DHT22;21463;47.480;8.214;2023-08-17T04:23:08;21.60;72.40
35363;DHT22;21463;47.480;8.214;2023-08-17T04:24:11;21.50;72.20
35363;DHT22;21463;47.480;8.214;2023-08-17T04:25:13;21.50;72.20
35363;DHT22;21463;47.480;8.214;2023-08-17T04:26:18;21.60;72.30
35363;DHT22;21463;47.480;8.214;2023-08-17T04:27:21;22.40;72.80
35363;DHT22;21463;47.480;8.214;2023-08-17T04:28:23;21.50;72.30
35363;DHT22;21463;47.480;8.214;2023-08-17T04:29:27;21.50;72.20
35363;DHT22;21463;47.480;8.214;2023-08-17T04:30:30;21.50;72.20
35363;DHT22;21463;47.480;8.214;2023-08-17T04:31:35;21.50;72.30
35363;DHT22;21463;47.480;8.214;2023-08-17T04:32:39;21.50;72.30
35363;DHT22;21463;47.480;8.214;2023-08-17T04:33:41;22.30;72.60
35363;DHT22;21463;47.480;8.214;2023-08-17T04:34:45;21.50;72.30
35363;DHT22;21463;47.480;8.214;2023-08-17T04:36:01;21.50;72.30
35363;DHT22;21463;47.480;8.214;2023-08-17T04:37:04;20.50;71.90
35363;DHT22;21463;47.480;8.214;2023-08-17T04:38:06;21.50;72.90
35363;DHT22;21463;47.480;8.214;2023-08-17T04:39:08;21.50;72.30
35363;DHT22;21463;47.480;8.214;2023-08-17T04:40:12;21.50;72.40
35363;DHT22;21463;47.480;8.214;2023-08-17T04:41:15;21.50;72.40
35363;DHT22;21463;47.480;8.214;2023-08-17T04:42:19;21.50;72.40
35363;DHT22;21463;47.480;8.214;2023-08-17T04:43:24;20.80;71.90
35363;DHT22;21463;47.480;8.214;2023-08-17T04:44:27;21.50;72.30
35363;DHT22;21463;47.480;8.214;2023-08-17T04:45:30;21.50;72.40
35363;DHT22;21463;47.480;8.214;2023-08-17T04:46:33;21.50;72.20
35363;DHT22;21463;47.480;8.214;2023-08-17T04:47:35;21.50;72.20
35363;DHT22;21463;47.480;8.214;2023-08-17T04:48:38;21.50;72.30
35363;DHT22;21463;47.480;8.214;2023-08-17T04:49:42;21.50;72.40
35363;DHT22;21463;47.480;8.214;2023-08-17T04:50:44;21.50;72.20
35363;DHT22;21463;47.480;8.214;2023-08-17T04:51:49;21.50;72.30
35363;DHT22;21463;47.480;8.214;2023-08-17T04:52:53;21.50;72.30
35363;DHT22;21463;47.480;8.214;2023-08-17T04:53:55;21.80;72.50
35363;DHT22;21463;47.480;8.214;2023-08-17T04:54:58;21.50;72.40
35363;DHT22;21463;47.480;8.214;2023-08-17T04:56:00;21.50;72.40
35363;DHT22;21463;47.480;8.214;2023-08-17T04:57:03;21.50;72.40
35363;DHT22;21463;47.480;8.214;2023-08-17T04:58:08;21.60;72.30
35363;DHT22;21463;47.480;8.214;2023-08-17T04:59:10;21.50;72.30
35363;DHT22;21463;47.480;8.214;2023-08-17T05:00:13;21.50;72.40
35363;DHT22;21463;47.480;8.214;2023-08-17T05:01:17;21.60;72.30
35363;DHT22;21463;47.480;8.214;2023-08-17T05:02:22;21.50;72.30
35363;DHT22;21463;47.480;8.214;2023-08-17T05:03:25;21.50;72.50
35363;DHT22;21463;47.480;8.214;2023-08-17T05:04:36;21.50;72.40
35363;DHT22;21463;47.480;8.214;2023-08-17T05:05:40;21.50;72.40
35363;DHT22;21463;47.480;8.214;2023-08-17T05:06:45;21.50;72.40
35363;DHT22;21463;47.480;8.214;2023-08-17T05:07:50;21.50;72.30
35363;DHT22;21463;47.480;8.214;2023-08-17T05:08:57;21.50;72.40
35363;DHT22;21463;47.480;8.214;2023-08-17T05:10:03;21.50;72.30
35363;DHT22;21463;47.480;8.214;2023-08-17T05:11:12;21.50;72.40
35363;DHT22;21463;47.480;8.214;2023-08-17T05:12:16;21.50;72.40
35363;DHT22;21463;47.480;8.214;2023-08-17T05:13:19;21.50;72.40
35363;DHT22;21463;47.480;8.214;2023-08-17T05:14:22;21.50;72.50
35363;DHT22;21463;47.480;8.214;2023-08-17T05:15:24;21.50;72.50
35363;DHT22;21463;47.480;8.214;2023-08-17T05:16:27;21.50;72.50
35363;DHT22;21463;47.480;8.214;2023-08-17T05:17:32;21.40;72.50
35363;DHT22;21463;47.480;8.214;2023-08-17T05:18:39;21.50;72.50
35363;DHT22;21463;47.480;8.214;2023-08-17T05:19:42;21.60;72.60
35363;DHT22;21463;47.480;8.214;2023-08-17T05:20:45;21.60;72.60
35363;DHT22;21463;47.480;8.214;2023-08-17T05:21:48;21.50;72.70
35363;DHT22;21463;47.480;8.214;2023-08-17T05:22:54;21.60;72.80
35363;DHT22;21463;47.480;8.214;2023-08-17T05:23:58;21.50;72.80
35363;DHT22;21463;47.480;8.214;2023-08-17T05:25:01;21.60;72.90
35363;DHT22;21463;47.480;8.214;2023-08-17T05:26:06;21.60;73.00
35363;DHT22;21463;47.480;8.214;2023-08-17T05:27:09;21.60;73.10
35363;DHT22;21463;47.480;8.214;2023-08-17T05:28:17;21.50;72.90
35363;DHT22;21463;47.480;8.214;2023-08-17T05:29:19;21.60;73.20
35363;DHT22;21463;47.480;8.214;2023-08-17T05:30:22;21.60;73.20
35363;DHT22;21463;47.480;8.214;2023-08-17T05:31:24;21.60;72.90
35363;DHT22;21463;47.480;8.214;2023-08-17T05:32:30;21.60;72.90
35363;DHT22;21463;47.480;8.214;2023-08-17T05:33:34;21.60;73.10
35363;DHT22;21463;47.480;8.214;2023-08-17T05:34:36;21.60;73.00
35363;DHT22;21463;47.480;8.214;2023-08-17T05:35:39;21.60;73.10
35363;DHT22;21463;47.480;8.214;2023-08-17T05:36:42;21.70;73.20
35363;DHT22;21463;47.480;8.214;2023-08-17T05:37:45;21.60;73.00
35363;DHT22;21463;47.480;8.214;2023-08-17T05:38:50;21.60;73.00
35363;DHT22;21463;47.480;8.214;2023-08-17T05:39:54;21.60;73.00
35363;DHT22;21463;47.480;8.214;2023-08-17T05:40:59;21.70;73.00
35363;DHT22;21463;47.480;8.214;2023-08-17T05:42:01;21.70;73.00
35363;DHT22;21463;47.480;8.214;2023-08-17T05:43:04;21.60;72.90
35363;DHT22;21463;47.480;8.214;2023-08-17T05:44:06;20.80;72.60
35363;DHT22;21463;47.480;8.214;2023-08-17T05:45:09;21.70;73.00
35363;DHT22;21463;47.480;8.214;2023-08-17T05:46:14;21.60;73.00
35363;DHT22;21463;47.480;8.214;2023-08-17T05:47:17;21.70;72.90
35363;DHT22;21463;47.480;8.214;2023-08-17T05:48:23;21.70;73.00
35363;DHT22;21463;47.480;8.214;2023-08-17T05:49:26;21.80;73.10
35363;DHT22;21463;47.480;8.214;2023-08-17T05:50:29;21.80;73.00
35363;DHT22;21463;47.480;8.214;2023-08-17T05:51:32;21.70;72.90
35363;DHT22;21463;47.480;8.214;2023-08-17T05:52:35;20.20;72.30
35363;DHT22;21463;47.480;8.214;2023-08-17T05:53:39;21.70;73.10
35363;DHT22;21463;47.480;8.214;2023-08-17T05:54:45;21.80;72.90
35363;DHT22;21463;47.480;8.214;2023-08-17T05:55:47;21.80;73.10
35363;DHT22;21463;47.480;8.214;2023-08-17T05:56:53;21.80;72.80
35363;DHT22;21463;47.480;8.214;2023-08-17T05:57:55;21.80;72.90
35363;DHT22;21463;47.480;8.214;2023-08-17T05:58:58;21.80;73.00
35363;DHT22;21463;47.480;8.214;2023-08-17T06:00:01;21.80;73.00
35363;DHT22;21463;47.480;8.214;2023-08-17T06:01:13;21.80;72.80
35363;DHT22;21463;47.480;8.214;2023-08-17T06:02:17;21.90;72.80
35363;DHT22;21463;47.480;8.214;2023-08-17T06:03:21;21.80;72.70
35363;DHT22;21463;47.480;8.214;2023-08-17T06:04:25;21.80;72.80
35363;DHT22;21463;47.480;8.214;2023-08-17T06:05:29;21.90;72.70
35363;DHT22;21463;47.480;8.214;2023-08-17T06:06:32;21.90;72.80
35363;DHT22;21463;47.480;8.214;2023-08-17T06:07:35;21.90;72.80
35363;DHT22;21463;47.480;8.214;2023-08-17T06:08:41;21.90;72.60
35363;DHT22;21463;47.480;8.214;2023-08-17T06:09:44;21.90;72.60
35363;DHT22;21463;47.480;8.214;2023-08-17T06:10:46;21.90;72.60
35363;DHT22;21463;47.480;8.214;2023-08-17T06:11:51;21.90;72.70
35363;DHT22;21463;47.480;8.214;2023-08-17T06:12:55;21.90;72.70
35363;DHT22;21463;47.480;8.214;2023-08-17T06:13:59;21.90;72.60
35363;DHT22;21463;47.480;8.214;2023-08-17T06:15:01;22.00;72.70
35363;DHT22;21463;47.480;8.214;2023-08-17T06:16:09;21.90;72.60
35363;DHT22;21463;47.480;8.214;2023-08-17T06:17:12;22.00;72.60
35363;DHT22;21463;47.480;8.214;2023-08-17T06:18:15;22.00;72.60
35363;DHT22;21463;47.480;8.214;2023-08-17T06:19:18;22.00;72.60
35363;DHT22;21463;47.480;8.214;2023-08-17T06:20:21;21.90;72.50
35363;DHT22;21463;47.480;8.214;2023-08-17T06:21:24;22.00;72.50
35363;DHT22;21463;47.480;8.214;2023-08-17T06:22:27;22.00;72.50
35363;DHT22;21463;47.480;8.214;2023-08-17T06:23:30;22.00;72.50
35363;DHT22;21463;47.480;8.214;2023-08-17T06:24:46;22.00;72.60
35363;DHT22;21463;47.480;8.214;2023-08-17T06:25:49;22.00;72.40
35363;DHT22;21463;47.480;8.214;2023-08-17T06:26:52;22.10;72.50
35363;DHT22;21463;47.480;8.214;2023-08-17T06:27:55;22.00;72.50
35363;DHT22;21463;47.480;8.214;2023-08-17T06:28:58;22.00;72.60
35363;DHT22;21463;47.480;8.214;2023-08-17T06:30:03;22.00;72.50
35363;DHT22;21463;47.480;8.214;2023-08-17T06:31:08;22.00;72.30
35363;DHT22;21463;47.480;8.214;2023-08-17T06:32:11;22.20;72.70
35363;DHT22;21463;47.480;8.214;2023-08-17T06:33:20;22.10;72.50
35363;DHT22;21463;47.480;8.214;2023-08-17T06:34:24;22.10;72.40
35363;DHT22;21463;47.480;8.214;2023-08-17T06:35:39;22.10;72.20
35363;DHT22;21463;47.480;8.214;2023-08-17T06:36:41;22.10;72.40
35363;DHT22;21463;47.480;8.214;2023-08-17T06:37:44;22.10;72.40
35363;DHT22;21463;47.480;8.214;2023-08-17T06:38:47;22.10;72.20
35363;DHT22;21463;47.480;8.214;2023-08-17T06:39:53;22.10;72.30
35363;DHT22;21463;47.480;8.214;2023-08-17T06:40:57;22.10;72.20
35363;DHT22;21463;47.480;8.214;2023-08-17T06:42:01;22.20;72.40
35363;DHT22;21463;47.480;8.214;2023-08-17T06:43:03;22.20;72.20
35363;DHT22;21463;47.480;8.214;2023-08-17T06:44:06;22.20;72.20
35363;DHT22;21463;47.480;8.214;2023-08-17T06:45:10;22.20;72.20